Ottawa Hills, Ohio
Current Conditions -  °F | °C
As of 4:15 PM on Monday 22 Dec 2014 (Local Time) from KDUH Reporting Station
Broken Clouds Broken Clouds  
Wind Chill: 29°   Ceiling: 9500
Heat Index: 36°   Visibility: 7mi
Dew Point: 30°   Wind: 8mph
Humidity: 81%   Direction: 90°E
Pressure: 29.93"   Gusts: NA
Location:  41.6504°N, 83.6702°W
Report Text: KDUH 222115Z AUTO 09007KT 7SM BKN095 BKN110 02/M01 A2993 RMK AO2
Loading
Personal Weather Stations






























Interactive Weather Map New forecast layout! Learn more

10-Day Weather Forecast

Advertisements
Track Severe Weather on mobile